Round Lake, Indiana
Current Conditions -  °F | °C
As of 9:15 AM on Friday 31 Oct 2014 (Local Time) from KGWB Reporting Station
Drizzle Drizzle  
Wind Chill: 35°   Ceiling: 3100
Heat Index: 41°   Visibility: 10mi
Dew Point: 36°   Wind: 10mph
Humidity: 81%   Direction: 320°NW
Pressure: 29.95"   Gusts: 16mph
Location:  41.4608°N, 85.2531°W
Report Text: KGWB 311315Z AUTO 32009G14KT 10SM DZ SCT010 SCT015 OVC031 05/02 A2995 RMK AO2
Loading
Personal Weather Stations






























Interactive Weather Map
Tropical Storm Tracking
New forecast layout! Learn more

10-Day Weather Forecast

Advertisements
Track Severe Weather on mobile